createdAt,value
2019-05-22T00:00:20.221Z,135.00
2019-05-22T00:01:20.233Z,135.00
2019-05-22T00:02:20.232Z,135.00
2019-05-22T00:03:20.241Z,135.00
2019-05-22T00:04:20.276Z,135.00
2019-05-22T00:05:20.235Z,135.00
2019-05-22T00:06:20.216Z,135.00
2019-05-22T00:07:20.269Z,135.00
2019-05-22T00:08:20.208Z,135.00
2019-05-22T00:09:20.254Z,133.10
2019-05-22T00:10:20.228Z,90.00
2019-05-22T00:11:20.251Z,90.00
2019-05-22T00:12:20.224Z,90.00
2019-05-22T00:13:20.207Z,90.00
2019-05-22T00:14:20.220Z,90.00
2019-05-22T00:15:20.255Z,90.00
2019-05-22T00:16:20.244Z,90.00
2019-05-22T00:17:20.242Z,90.00
2019-05-22T00:18:20.228Z,90.00
2019-05-22T00:19:20.224Z,82.05
2019-05-22T00:20:20.279Z,45.00
2019-05-22T00:21:20.262Z,67.69
2019-05-22T00:22:20.233Z,90.00
2019-05-22T00:23:20.258Z,90.00
2019-05-22T00:24:20.235Z,90.00
2019-05-22T00:25:20.271Z,90.00
2019-05-22T00:26:20.225Z,90.00
2019-05-22T00:27:20.250Z,90.00
2019-05-22T00:28:20.248Z,90.00
2019-05-22T00:29:20.264Z,90.00
2019-05-22T00:30:20.231Z,90.00
2019-05-22T00:31:20.235Z,90.00
2019-05-22T00:32:20.268Z,90.00
2019-05-22T00:33:20.236Z,90.00
2019-05-22T00:34:20.264Z,90.00
2019-05-22T00:35:20.239Z,90.00
2019-05-22T00:36:20.227Z,90.00
2019-05-22T00:37:20.241Z,90.00
2019-05-22T00:38:20.275Z,90.00
2019-05-22T00:39:20.233Z,90.00
2019-05-22T00:40:20.298Z,90.00
2019-05-22T00:41:20.279Z,118.07
2019-05-22T00:42:20.243Z,135.00
2019-05-22T00:43:20.234Z,135.00
2019-05-22T00:44:20.248Z,135.00
2019-05-22T00:45:20.253Z,135.00
2019-05-22T00:46:20.272Z,135.00
2019-05-22T00:47:20.283Z,135.00
2019-05-22T00:48:20.254Z,135.00
2019-05-22T00:49:20.265Z,135.00
2019-05-22T00:50:20.236Z,135.00
2019-05-22T00:51:20.296Z,135.00
2019-05-22T00:52:20.270Z,135.00
2019-05-22T00:53:20.305Z,135.00
2019-05-22T00:54:20.251Z,135.00
2019-05-22T00:55:20.270Z,135.00
2019-05-22T00:56:20.291Z,135.00
2019-05-22T00:57:20.284Z,122.34
2019-05-22T00:58:20.296Z,315.00
2019-05-22T00:59:20.275Z,315.00
2019-05-22T01:00:20.277Z,315.00
2019-05-22T01:01:20.299Z,315.00
2019-05-22T01:02:20.261Z,315.00
2019-05-22T01:03:20.291Z,315.00
2019-05-22T01:04:20.298Z,315.00
2019-05-22T01:05:20.279Z,315.00
2019-05-22T01:06:20.261Z,313.70
2019-05-22T01:07:20.257Z,308.17
2019-05-22T01:08:20.260Z,309.39
2019-05-22T01:09:20.311Z,306.77
2019-05-22T01:10:20.284Z,315.00
2019-05-22T01:11:20.301Z,315.00
2019-05-22T01:12:20.270Z,315.00
2019-05-22T01:13:20.293Z,281.98
2019-05-22T01:14:20.277Z,270.00
2019-05-22T01:15:20.305Z,270.00
2019-05-22T01:16:20.294Z,254.68
2019-05-22T01:17:20.331Z,135.00
2019-05-22T01:18:20.316Z,135.00
2019-05-22T01:19:20.275Z,135.00
2019-05-22T01:20:20.294Z,135.00
2019-05-22T01:21:20.308Z,135.00
2019-05-22T01:22:20.302Z,135.00
2019-05-22T01:23:20.304Z,135.00
2019-05-22T01:24:20.320Z,139.62
2019-05-22T01:25:20.316Z,300.34
2019-05-22T01:26:20.323Z,283.38
2019-05-22T01:27:20.265Z,354.10
2019-05-22T01:28:20.309Z,315.00
2019-05-22T01:29:20.309Z,315.00
2019-05-22T01:30:20.303Z,315.00
2019-05-22T01:31:20.315Z,315.00
2019-05-22T01:32:20.312Z,284.21
2019-05-22T01:33:20.303Z,135.00
2019-05-22T01:34:20.296Z,135.00
2019-05-22T01:35:20.287Z,135.00
2019-05-22T01:36:20.311Z,135.00
2019-05-22T01:37:20.287Z,135.00
2019-05-22T01:38:20.336Z,135.00
2019-05-22T01:39:20.333Z,135.00
2019-05-22T01:40:20.339Z,125.37
2019-05-22T01:41:20.323Z,88.84
2019-05-22T01:42:20.326Z,290.60
2019-05-22T01:43:20.310Z,311.17
2019-05-22T01:44:20.330Z,290.73
2019-05-22T01:45:20.305Z,301.26
2019-05-22T01:46:20.316Z,278.12
2019-05-22T01:47:20.373Z,270.00
2019-05-22T01:48:20.296Z,270.00
2019-05-22T01:49:20.301Z,270.00
2019-05-22T01:50:20.337Z,270.00
2019-05-22T01:51:20.308Z,277.44
2019-05-22T01:52:20.322Z,259.78
2019-05-22T01:53:20.326Z,270.19
2019-05-22T01:54:20.328Z,204.76
2019-05-22T01:55:20.354Z,180.00
2019-05-22T01:56:20.311Z,185.94
2019-05-22T01:57:20.348Z,241.71
2019-05-22T01:58:20.327Z,270.14
2019-05-22T01:59:20.347Z,270.00
2019-05-22T02:00:20.319Z,229.12
2019-05-22T02:01:20.307Z,225.00
2019-05-22T02:02:20.344Z,225.00
2019-05-22T02:03:20.322Z,225.00
2019-05-22T02:04:20.375Z,225.00
2019-05-22T02:05:20.338Z,158.34
2019-05-22T02:06:20.311Z,171.92
2019-05-22T02:07:20.307Z,235.88
2019-05-22T02:08:20.341Z,193.89
2019-05-22T02:09:20.329Z,261.56
2019-05-22T02:10:20.365Z,180.00
2019-05-22T02:11:20.357Z,163.09
2019-05-22T02:12:20.321Z,135.00
2019-05-22T02:13:20.319Z,135.00
2019-05-22T02:14:20.342Z,135.00
2019-05-22T02:15:20.323Z,176.34
2019-05-22T02:16:20.362Z,283.76
2019-05-22T02:17:20.349Z,281.08
2019-05-22T02:18:20.347Z,270.00
2019-05-22T02:19:20.383Z,255.76
2019-05-22T02:20:20.307Z,135.00
2019-05-22T02:21:20.408Z,135.00
2019-05-22T02:22:20.347Z,51.24
2019-05-22T02:23:20.380Z,45.00
2019-05-22T02:24:20.337Z,110.72
2019-05-22T02:25:20.313Z,135.00
2019-05-22T02:26:20.380Z,130.38
2019-05-22T02:27:20.337Z,135.00
2019-05-22T02:28:20.339Z,135.64
2019-05-22T02:29:20.361Z,256.66
2019-05-22T02:30:20.370Z,280.03
2019-05-22T02:31:20.414Z,270.00
2019-05-22T02:32:20.369Z,270.11
2019-05-22T02:33:20.338Z,218.66
2019-05-22T02:34:20.376Z,172.17
2019-05-22T02:35:20.365Z,165.22
2019-05-22T02:36:20.457Z,330.02
2019-05-22T02:37:20.348Z,271.36
2019-05-22T02:38:20.348Z,267.61
2019-05-22T02:39:20.371Z,282.20
2019-05-22T02:40:20.350Z,270.45
2019-05-22T02:41:20.366Z,271.26
2019-05-22T02:42:20.439Z,284.90
2019-05-22T02:43:20.384Z,282.30
2019-05-22T02:44:20.354Z,307.62
2019-05-22T02:45:20.368Z,281.91
2019-05-22T02:46:20.355Z,276.40
2019-05-22T02:47:21.470Z,275.83
2019-05-22T02:48:20.326Z,284.12
2019-05-22T02:49:20.339Z,292.46
2019-05-22T02:50:20.378Z,235.85
2019-05-22T02:51:20.366Z,207.87
2019-05-22T02:52:20.421Z,269.51
2019-05-22T02:53:20.401Z,253.45
2019-05-22T02:54:20.373Z,195.38
2019-05-22T02:55:20.358Z,234.57
2019-05-22T02:56:20.370Z,180.00
2019-05-22T02:57:20.371Z,195.68
2019-05-22T02:58:20.405Z,3.38
2019-05-22T02:59:20.488Z,263.80
2019-05-22T03:00:20.452Z,208.94
2019-05-22T03:01:20.485Z,63.05
2019-05-22T03:02:20.399Z,291.43
2019-05-22T03:03:20.473Z,228.44
2019-05-22T03:04:20.474Z,251.35
2019-05-22T03:05:20.508Z,276.73
2019-05-22T03:06:20.476Z,278.84
2019-05-22T03:07:20.469Z,282.41
2019-05-22T03:08:20.524Z,270.00
2019-05-22T03:09:20.567Z,306.23
2019-05-22T03:10:20.539Z,310.99
2019-05-22T03:11:20.566Z,270.61
2019-05-22T03:12:20.520Z,20.64
2019-05-22T03:13:20.571Z,9.05
2019-05-22T03:14:20.625Z,154.72
2019-05-22T03:15:20.619Z,260.28
2019-05-22T03:16:20.605Z,225.00
2019-05-22T03:17:20.626Z,76.74
2019-05-22T03:18:20.653Z,315.00
2019-05-22T03:19:20.690Z,315.00
2019-05-22T03:20:20.639Z,315.00
2019-05-22T03:21:20.670Z,295.02
2019-05-22T03:22:20.780Z,270.00
2019-05-22T03:23:20.730Z,289.66
2019-05-22T03:24:20.731Z,271.75
2019-05-22T03:25:20.696Z,270.00
2019-05-22T03:26:20.699Z,270.09
2019-05-22T03:27:20.725Z,270.00
2019-05-22T03:28:20.710Z,182.05
2019-05-22T03:29:20.829Z,180.00
2019-05-22T03:30:20.803Z,180.00
2019-05-22T03:31:20.929Z,180.00
2019-05-22T03:32:20.822Z,315.76
2019-05-22T03:33:20.788Z,301.98
2019-05-22T03:34:20.865Z,201.28
2019-05-22T03:35:20.875Z,290.39
2019-05-22T03:36:20.938Z,278.16
2019-05-22T03:37:20.874Z,315.00
2019-05-22T03:38:20.877Z,246.26
2019-05-22T03:39:20.904Z,278.25
2019-05-22T03:40:20.930Z,270.00
2019-05-22T03:41:20.960Z,270.00
2019-05-22T03:42:20.900Z,270.00
2019-05-22T03:43:20.906Z,186.67
2019-05-22T03:44:20.901Z,135.00
2019-05-22T03:45:20.919Z,135.00
2019-05-22T03:46:21.016Z,218.97
2019-05-22T03:47:20.971Z,270.00
2019-05-22T03:48:20.993Z,270.00
2019-05-22T03:49:29.807Z,270.00
2019-05-22T03:50:20.987Z,270.00
2019-05-22T03:51:20.997Z,255.62
2019-05-22T03:52:20.983Z,272.99
2019-05-22T03:53:21.038Z,270.00
2019-05-22T03:54:21.014Z,282.78
2019-05-22T03:55:21.028Z,285.32
2019-05-22T03:56:21.023Z,304.94
2019-05-22T03:57:21.068Z,301.25
2019-05-22T03:58:21.025Z,270.00
2019-05-22T03:59:21.065Z,286.29
2019-05-22T04:00:21.030Z,270.21
2019-05-22T04:01:21.055Z,306.54
2019-05-22T04:02:21.036Z,296.78
2019-05-22T04:03:21.042Z,273.24
2019-05-22T04:04:21.060Z,270.90
2019-05-22T04:05:21.031Z,266.47
2019-05-22T04:06:21.044Z,256.27
2019-05-22T04:07:21.078Z,242.13
2019-05-22T04:08:21.043Z,237.33
2019-05-22T04:09:21.057Z,269.29
2019-05-22T04:10:21.102Z,290.32
2019-05-22T04:11:21.058Z,238.03
2019-05-22T04:12:21.067Z,190.53
2019-05-22T04:13:21.031Z,135.00
2019-05-22T04:14:21.074Z,135.00
2019-05-22T04:15:21.068Z,135.00
2019-05-22T04:16:21.060Z,135.97
2019-05-22T04:17:21.034Z,265.12
2019-05-22T04:18:23.004Z,225.00
2019-05-22T04:19:21.040Z,305.36
2019-05-22T04:20:21.083Z,315.00
2019-05-22T04:21:21.110Z,315.00
2019-05-22T04:22:21.102Z,249.64
2019-05-22T04:23:21.124Z,135.00
2019-05-22T04:24:21.088Z,135.00
2019-05-22T04:25:21.110Z,135.00
2019-05-22T04:26:21.156Z,135.00
2019-05-22T04:27:21.170Z,135.00
2019-05-22T04:28:21.165Z,135.00
2019-05-22T04:29:21.170Z,135.00
2019-05-22T04:30:21.178Z,135.00
2019-05-22T04:31:21.162Z,135.00
2019-05-22T04:32:21.209Z,135.00
2019-05-22T04:33:21.231Z,122.53
2019-05-22T04:34:21.246Z,135.00
2019-05-22T04:35:21.268Z,135.00
2019-05-22T04:36:21.244Z,135.00
2019-05-22T04:37:21.238Z,135.00
2019-05-22T04:38:21.282Z,135.00
2019-05-22T04:39:21.327Z,102.44
2019-05-22T04:40:21.300Z,90.00
2019-05-22T04:41:21.282Z,90.00
2019-05-22T04:42:21.314Z,90.00
2019-05-22T04:43:21.377Z,90.00
2019-05-22T04:44:21.357Z,90.00
2019-05-22T04:45:21.362Z,90.00
2019-05-22T04:46:21.417Z,90.00
2019-05-22T04:47:21.363Z,90.00
2019-05-22T04:48:21.398Z,90.00
2019-05-22T04:49:21.371Z,90.00
2019-05-22T04:50:21.426Z,101.95
2019-05-22T04:51:21.455Z,135.00
2019-05-22T04:52:21.478Z,115.78
2019-05-22T04:53:21.460Z,118.71
2019-05-22T04:54:21.491Z,112.95
2019-05-22T04:55:21.505Z,135.00
2019-05-22T04:56:21.491Z,135.00
2019-05-22T04:57:21.498Z,135.00
2019-05-22T04:58:21.532Z,135.00
2019-05-22T04:59:21.484Z,135.00
2019-05-22T05:00:21.531Z,135.00
2019-05-22T05:01:21.537Z,135.00
2019-05-22T05:02:21.522Z,135.00
2019-05-22T05:03:21.582Z,135.00
2019-05-22T05:04:21.591Z,135.00
2019-05-22T05:05:21.602Z,135.00
2019-05-22T05:06:21.612Z,135.00
2019-05-22T05:07:21.635Z,135.00
2019-05-22T05:08:21.637Z,98.36
2019-05-22T05:09:21.632Z,90.00
2019-05-22T05:10:21.669Z,90.00
2019-05-22T05:11:21.748Z,90.00
2019-05-22T05:12:21.671Z,90.00
2019-05-22T05:13:21.726Z,90.00
2019-05-22T05:14:21.707Z,90.00
2019-05-22T05:15:21.703Z,29.46
2019-05-22T05:16:21.730Z,0.00
2019-05-22T05:17:21.696Z,10.20
2019-05-22T05:18:21.732Z,135.00
2019-05-22T05:19:21.741Z,135.00
2019-05-22T05:20:22.789Z,322.39
2019-05-22T05:21:21.784Z,315.00
2019-05-22T05:22:21.821Z,315.00
2019-05-22T05:23:21.787Z,348.51
2019-05-22T05:24:21.803Z,135.00
2019-05-22T05:25:21.827Z,135.00
2019-05-22T05:26:21.823Z,135.00
2019-05-22T05:27:21.858Z,98.40
2019-05-22T05:28:21.900Z,90.00
2019-05-22T05:29:21.857Z,90.00
2019-05-22T05:30:21.896Z,90.00
2019-05-22T05:31:21.883Z,90.00
2019-05-22T05:32:21.878Z,90.00
2019-05-22T05:33:21.959Z,90.00
2019-05-22T05:34:21.958Z,90.00
2019-05-22T05:35:21.917Z,90.00
2019-05-22T05:36:21.931Z,90.00
2019-05-22T05:37:21.973Z,90.00
2019-05-22T05:38:21.981Z,109.09
2019-05-22T05:39:22.031Z,135.00
2019-05-22T05:40:21.993Z,135.00
2019-05-22T05:41:22.054Z,135.00
2019-05-22T05:42:22.037Z,135.00
2019-05-22T05:43:22.023Z,135.00
2019-05-22T05:44:22.086Z,135.00
2019-05-22T05:45:22.105Z,116.83
2019-05-22T05:46:22.036Z,90.00
2019-05-22T05:47:22.066Z,90.00
2019-05-22T05:48:22.098Z,90.00
2019-05-22T05:49:22.079Z,90.00
2019-05-22T05:50:37.901Z,90.00
2019-05-22T05:51:22.122Z,90.00
2019-05-22T05:52:22.111Z,90.00
2019-05-22T05:53:22.135Z,90.00
2019-05-22T05:54:22.104Z,90.00
2019-05-22T05:55:22.102Z,90.00
2019-05-22T05:56:22.139Z,90.00
2019-05-22T05:57:22.142Z,90.00
2019-05-22T05:58:22.106Z,90.00
2019-05-22T05:59:22.135Z,90.00
2019-05-22T06:00:22.133Z,90.00
2019-05-22T06:01:22.133Z,90.00
2019-05-22T06:02:22.132Z,90.00
2019-05-22T06:03:22.153Z,90.00
2019-05-22T06:04:34.093Z,100.93
2019-05-22T06:05:22.131Z,135.00
2019-05-22T06:06:22.125Z,135.00
2019-05-22T06:07:22.113Z,135.00
2019-05-22T06:08:22.124Z,135.00
2019-05-22T06:09:22.142Z,135.00
2019-05-22T06:10:22.127Z,135.00
2019-05-22T06:11:22.164Z,135.00
2019-05-22T06:12:22.161Z,135.00
2019-05-22T06:13:22.175Z,135.00
2019-05-22T06:14:22.351Z,135.00
2019-05-22T06:15:22.153Z,133.49
2019-05-22T06:16:22.126Z,90.00
2019-05-22T06:17:22.107Z,90.00
2019-05-22T06:18:22.133Z,90.00
2019-05-22T06:19:22.146Z,90.00
2019-05-22T06:20:22.137Z,90.00
2019-05-22T06:21:22.161Z,90.00
2019-05-22T06:22:22.135Z,90.00
2019-05-22T06:23:22.160Z,90.00
2019-05-22T06:24:22.135Z,90.00
2019-05-22T06:25:22.117Z,90.00
2019-05-22T06:26:22.157Z,90.00
2019-05-22T06:27:22.171Z,90.00
2019-05-22T06:28:22.131Z,90.00
2019-05-22T06:29:22.115Z,90.00
2019-05-22T06:30:22.143Z,90.00
2019-05-22T06:31:22.171Z,90.00
2019-05-22T06:32:22.134Z,90.00
2019-05-22T06:33:22.156Z,90.00
2019-05-22T06:34:22.137Z,90.00
2019-05-22T06:35:22.152Z,90.00
2019-05-22T06:36:22.162Z,90.00
2019-05-22T06:37:22.140Z,90.00
2019-05-22T06:38:22.191Z,90.00
2019-05-22T06:39:22.169Z,90.00
2019-05-22T06:40:22.130Z,90.00
2019-05-22T06:41:22.157Z,90.00
2019-05-22T06:42:22.143Z,90.00
2019-05-22T06:43:22.129Z,90.00
2019-05-22T06:44:22.168Z,90.00
2019-05-22T06:45:22.159Z,90.00
2019-05-22T06:46:22.203Z,90.00
2019-05-22T06:47:22.225Z,90.00
2019-05-22T06:48:22.213Z,90.00
2019-05-22T06:49:22.144Z,90.00
2019-05-22T06:50:22.227Z,90.00
2019-05-22T06:51:22.174Z,90.00
2019-05-22T06:52:22.169Z,90.00
2019-05-22T06:53:22.201Z,90.00
2019-05-22T06:54:22.169Z,112.92
2019-05-22T06:55:22.164Z,135.00
2019-05-22T06:56:23.836Z,135.00
2019-05-22T06:57:22.203Z,167.96
2019-05-22T06:58:22.173Z,225.00
2019-05-22T06:59:22.153Z,225.00
2019-05-22T07:00:22.145Z,284.26
2019-05-22T07:01:22.174Z,315.00
2019-05-22T07:02:22.216Z,311.30
2019-05-22T07:03:22.198Z,270.00
2019-05-22T07:04:22.190Z,270.00
2019-05-22T07:05:22.194Z,294.10
2019-05-22T07:06:22.150Z,315.93
2019-05-22T07:07:22.211Z,306.57
2019-05-22T07:08:22.181Z,303.81
2019-05-22T07:09:22.188Z,315.00
2019-05-22T07:10:22.157Z,350.27
2019-05-22T07:11:22.194Z,270.00
2019-05-22T07:12:22.188Z,266.13
2019-05-22T07:13:22.185Z,303.16
2019-05-22T07:14:22.209Z,270.00
2019-05-22T07:15:22.203Z,261.75
2019-05-22T07:16:22.237Z,110.97
2019-05-22T07:17:22.159Z,76.36
2019-05-22T07:18:22.182Z,321.15
2019-05-22T07:19:22.179Z,181.48
2019-05-22T07:20:22.206Z,10.13
2019-05-22T07:21:33.373Z,232.06
2019-05-22T07:22:22.207Z,96.01
2019-05-22T07:23:22.205Z,90.00
2019-05-22T07:24:22.193Z,40.74
2019-05-22T07:25:22.159Z,61.66
2019-05-22T07:26:22.235Z,299.33
2019-05-22T07:27:22.218Z,272.63
2019-05-22T07:28:22.251Z,306.48
2019-05-22T07:29:22.201Z,320.87
2019-05-22T07:30:22.175Z,340.56
2019-05-22T07:31:22.184Z,337.72
2019-05-22T07:32:22.232Z,304.24
2019-05-22T07:33:22.276Z,285.72
2019-05-22T07:34:22.215Z,301.71
2019-05-22T07:35:22.209Z,252.16
2019-05-22T07:36:22.197Z,295.61
2019-05-22T07:37:22.225Z,91.99
2019-05-22T07:38:22.221Z,277.24
2019-05-22T07:39:22.215Z,282.73
2019-05-22T07:40:22.206Z,299.66
2019-05-22T07:41:22.198Z,282.60
2019-05-22T07:42:22.192Z,157.76
2019-05-22T07:43:22.208Z,309.62
2019-05-22T07:44:22.248Z,106.82
2019-05-22T07:45:22.224Z,265.17
2019-05-22T07:46:22.242Z,285.20
2019-05-22T07:47:22.242Z,255.16
2019-05-22T07:48:22.194Z,306.40
2019-05-22T07:49:22.197Z,304.08
2019-05-22T07:50:22.220Z,0.09
2019-05-22T07:51:22.234Z,294.70
2019-05-22T07:52:22.226Z,282.53
2019-05-22T07:53:22.226Z,305.27
2019-05-22T07:54:22.195Z,295.50
2019-05-22T07:55:22.227Z,302.38
2019-05-22T07:56:22.235Z,277.18
2019-05-22T07:57:22.238Z,26.76
2019-05-22T07:58:22.198Z,50.25
2019-05-22T07:59:22.224Z,316.75
2019-05-22T08:00:22.235Z,320.80
2019-05-22T08:01:22.246Z,306.34
2019-05-22T08:02:22.286Z,278.27
2019-05-22T08:03:22.238Z,286.16
2019-05-22T08:04:22.232Z,295.62
2019-05-22T08:05:22.246Z,269.45
2019-05-22T08:06:22.246Z,106.91
2019-05-22T08:07:22.244Z,140.87
2019-05-22T08:08:22.259Z,68.67
2019-05-22T08:09:22.250Z,302.80
2019-05-22T08:10:22.211Z,114.78
2019-05-22T08:11:22.233Z,297.91
2019-05-22T08:12:22.233Z,309.79
2019-05-22T08:13:22.240Z,297.17
2019-05-22T08:14:22.264Z,282.59
2019-05-22T08:15:22.281Z,90.00
2019-05-22T08:16:22.238Z,55.62
2019-05-22T08:17:22.259Z,273.34
2019-05-22T08:18:22.239Z,286.08
2019-05-22T08:19:22.225Z,297.54
2019-05-22T08:20:22.237Z,288.12
2019-05-22T08:21:23.661Z,304.61
2019-05-22T08:22:22.263Z,303.72
2019-05-22T08:23:22.234Z,285.74
2019-05-22T08:24:22.232Z,287.84
2019-05-22T08:25:22.286Z,187.79
2019-05-22T08:26:22.300Z,261.67
2019-05-22T08:27:22.276Z,58.17
2019-05-22T08:28:22.249Z,117.91
2019-05-22T08:29:22.270Z,278.91
2019-05-22T08:30:22.264Z,161.72
2019-05-22T08:31:22.251Z,44.35
2019-05-22T08:32:22.281Z,85.64
2019-05-22T08:33:22.281Z,4.76
2019-05-22T08:34:22.251Z,287.64
2019-05-22T08:35:22.238Z,118.92
2019-05-22T08:36:22.255Z,193.06
2019-05-22T08:37:22.248Z,229.11
2019-05-22T08:38:22.315Z,289.10
2019-05-22T08:39:22.290Z,328.99
2019-05-22T08:40:22.243Z,90.00
2019-05-22T08:41:22.292Z,90.00
2019-05-22T08:42:22.256Z,282.60
2019-05-22T08:43:22.243Z,304.85
2019-05-22T08:44:22.268Z,323.62
2019-05-22T08:45:22.290Z,85.61
2019-05-22T08:46:22.290Z,315.00
2019-05-22T08:47:22.247Z,315.00
2019-05-22T08:48:22.274Z,315.00
2019-05-22T08:49:22.259Z,315.00
2019-05-22T08:50:22.323Z,298.35
2019-05-22T08:51:22.303Z,315.00
2019-05-22T08:52:23.411Z,315.33
2019-05-22T08:53:22.292Z,358.60
2019-05-22T08:54:22.285Z,309.37
2019-05-22T08:55:22.264Z,0.00
2019-05-22T08:56:22.310Z,14.60
2019-05-22T08:57:22.296Z,45.00
2019-05-22T08:58:22.274Z,45.00
2019-05-22T08:59:22.286Z,45.00
2019-05-22T09:00:22.277Z,45.00
2019-05-22T09:01:22.299Z,45.00
2019-05-22T09:02:22.277Z,42.66
2019-05-22T09:03:22.312Z,315.12
2019-05-22T09:04:22.301Z,315.00
2019-05-22T09:05:22.326Z,305.02
2019-05-22T09:06:22.296Z,315.00
2019-05-22T09:07:22.268Z,315.00
2019-05-22T09:08:22.309Z,317.04
2019-05-22T09:09:22.314Z,316.45
2019-05-22T09:10:25.997Z,260.22
2019-05-22T09:11:22.275Z,128.15
2019-05-22T09:12:22.303Z,161.80
2019-05-22T09:13:22.331Z,193.89
2019-05-22T09:14:22.307Z,257.39
2019-05-22T09:15:22.318Z,247.64
2019-05-22T09:16:22.321Z,304.61
2019-05-22T09:17:22.317Z,244.06
2019-05-22T09:18:22.291Z,277.54
2019-05-22T09:19:22.319Z,272.56
2019-05-22T09:20:22.301Z,270.00
2019-05-22T09:21:22.297Z,275.65
2019-05-22T09:22:22.315Z,292.89
2019-05-22T09:23:22.321Z,281.83
2019-05-22T09:24:22.287Z,240.98
2019-05-22T09:25:22.305Z,178.22
2019-05-22T09:26:22.343Z,180.00
2019-05-22T09:27:22.346Z,180.00
2019-05-22T09:28:22.329Z,185.37
2019-05-22T09:29:22.296Z,270.01
2019-05-22T09:30:22.328Z,270.00
2019-05-22T09:31:22.314Z,266.93
2019-05-22T09:32:22.337Z,260.37
2019-05-22T09:33:22.338Z,92.43
2019-05-22T09:34:22.331Z,225.00
2019-05-22T09:35:22.393Z,225.00
2019-05-22T09:36:22.304Z,249.30
2019-05-22T09:37:22.364Z,256.38
2019-05-22T09:38:22.355Z,308.07
2019-05-22T09:39:22.337Z,302.05
2019-05-22T09:40:22.317Z,315.00
2019-05-22T09:41:22.303Z,331.05
2019-05-22T09:42:22.339Z,122.00
2019-05-22T09:43:22.332Z,127.42
2019-05-22T09:44:22.363Z,180.00
2019-05-22T09:45:22.352Z,143.87
2019-05-22T09:46:22.334Z,135.00
2019-05-22T09:47:22.313Z,156.28
2019-05-22T09:48:22.326Z,271.36
2019-05-22T09:49:24.052Z,269.24
2019-05-22T09:50:22.365Z,275.73
2019-05-22T09:51:22.341Z,209.82
2019-05-22T09:52:22.347Z,280.37
2019-05-22T09:53:22.319Z,339.84
2019-05-22T09:54:22.330Z,299.66
2019-05-22T09:55:22.343Z,311.05
2019-05-22T09:56:22.353Z,292.77
2019-05-22T09:57:22.354Z,296.95
2019-05-22T09:58:22.329Z,12.39
2019-05-22T09:59:22.333Z,152.36
2019-05-22T10:00:22.329Z,290.44
2019-05-22T10:01:22.348Z,293.57
2019-05-22T10:02:22.395Z,286.30
2019-05-22T10:03:22.399Z,280.04
2019-05-22T10:04:22.357Z,316.77
2019-05-22T10:05:22.372Z,310.49
2019-05-22T10:06:22.354Z,304.15
2019-05-22T10:07:22.452Z,290.74
2019-05-22T10:08:22.377Z,262.37
2019-05-22T10:09:22.362Z,319.82
2019-05-22T10:10:22.387Z,319.88
2019-05-22T10:11:22.358Z,12.31
2019-05-22T10:12:22.346Z,316.93
2019-05-22T10:13:22.475Z,59.81
2019-05-22T10:14:22.377Z,279.79
2019-05-22T10:15:22.503Z,296.31
2019-05-22T10:16:22.359Z,314.04
2019-05-22T10:17:22.343Z,345.64
2019-05-22T10:18:22.360Z,296.99
2019-05-22T10:19:22.353Z,294.24
2019-05-22T10:20:22.385Z,301.68
2019-05-22T10:21:22.377Z,315.00
2019-05-22T10:22:22.354Z,315.00
2019-05-22T10:23:22.352Z,294.72
2019-05-22T10:24:22.367Z,290.03
2019-05-22T10:25:22.379Z,326.96
2019-05-22T10:26:22.392Z,35.34
2019-05-22T10:27:22.394Z,245.22
2019-05-22T10:28:22.350Z,265.65
2019-05-22T10:29:22.401Z,309.19
2019-05-22T10:30:22.363Z,320.99
2019-05-22T10:31:22.349Z,130.23
2019-05-22T10:32:22.394Z,353.36
2019-05-22T10:33:22.407Z,321.39
2019-05-22T10:34:22.416Z,145.22
2019-05-22T10:35:22.388Z,89.00
2019-05-22T10:36:22.418Z,90.00
2019-05-22T10:37:22.369Z,37.05
2019-05-22T10:38:22.387Z,317.49
2019-05-22T10:39:24.693Z,2.94
2019-05-22T10:40:22.381Z,299.24
2019-05-22T10:41:22.426Z,292.09
2019-05-22T10:42:22.412Z,326.64
2019-05-22T10:43:22.392Z,291.46
2019-05-22T10:44:22.425Z,305.92
2019-05-22T10:45:22.394Z,351.71
2019-05-22T10:46:22.369Z,309.62
2019-05-22T10:47:22.398Z,308.84
2019-05-22T10:48:22.411Z,303.75
2019-05-22T10:49:22.420Z,305.22
2019-05-22T10:50:22.450Z,307.13
2019-05-22T10:51:22.437Z,302.86
2019-05-22T10:52:22.392Z,295.74
2019-05-22T10:53:32.997Z,322.63
2019-05-22T10:54:22.386Z,91.51
2019-05-22T10:55:22.403Z,119.71
2019-05-22T10:56:22.398Z,303.90
2019-05-22T10:57:22.445Z,59.23
2019-05-22T10:58:22.392Z,297.27
2019-05-22T10:59:22.400Z,297.85
2019-05-22T11:00:22.432Z,290.01
2019-05-22T11:01:22.397Z,293.71
2019-05-22T11:02:22.408Z,307.49
2019-05-22T11:03:22.420Z,302.20
2019-05-22T11:04:22.410Z,356.02
2019-05-22T11:05:22.435Z,303.32
2019-05-22T11:06:22.415Z,299.16
2019-05-22T11:07:22.409Z,304.84
2019-05-22T11:08:22.399Z,303.86
2019-05-22T11:09:22.456Z,301.18
2019-05-22T11:10:22.433Z,322.96
2019-05-22T11:11:22.486Z,315.00
2019-05-22T11:12:22.405Z,297.78
2019-05-22T11:13:22.435Z,280.70
2019-05-22T11:14:22.435Z,294.13
2019-05-22T11:15:22.492Z,309.47
2019-05-22T11:16:22.433Z,299.24
2019-05-22T11:17:22.442Z,63.18
2019-05-22T11:18:22.417Z,309.97
2019-05-22T11:19:22.419Z,301.84
2019-05-22T11:20:22.451Z,302.19
2019-05-22T11:21:22.455Z,325.68
2019-05-22T11:22:22.431Z,323.50
2019-05-22T11:23:22.420Z,335.36
2019-05-22T11:24:22.424Z,346.24
2019-05-22T11:25:22.452Z,309.84
2019-05-22T11:26:22.441Z,304.40
2019-05-22T11:27:22.444Z,321.44
2019-05-22T11:28:22.429Z,301.34
2019-05-22T11:29:22.493Z,4.50
2019-05-22T11:30:22.426Z,304.74
2019-05-22T11:31:22.439Z,310.00
2019-05-22T11:32:22.504Z,301.08
2019-05-22T11:33:22.521Z,299.29
2019-05-22T11:34:22.434Z,288.75
2019-05-22T11:35:22.456Z,275.13
2019-05-22T11:36:22.455Z,6.64
2019-05-22T11:37:22.436Z,333.78
2019-05-22T11:38:22.507Z,83.22
2019-05-22T11:39:38.150Z,291.87
2019-05-22T11:40:22.471Z,359.67
2019-05-22T11:41:22.473Z,87.06
2019-05-22T11:42:22.445Z,292.71
2019-05-22T11:43:22.455Z,332.80
2019-05-22T11:44:22.469Z,270.00
2019-05-22T11:45:22.467Z,256.27
2019-05-22T11:46:22.490Z,128.70
2019-05-22T11:47:22.482Z,79.71
2019-05-22T11:48:22.475Z,85.86
2019-05-22T11:49:22.438Z,312.66
2019-05-22T11:50:22.455Z,219.97
2019-05-22T11:51:22.502Z,301.12
2019-05-22T11:52:22.495Z,271.32
2019-05-22T11:53:22.446Z,305.74
2019-05-22T11:54:22.469Z,0.00
2019-05-22T11:55:22.490Z,0.76
2019-05-22T11:56:22.522Z,355.88
2019-05-22T11:57:22.469Z,305.97
2019-05-22T11:58:22.513Z,300.97
2019-05-22T11:59:22.500Z,273.20
2019-05-22T12:00:22.454Z,301.55
2019-05-22T12:01:22.479Z,285.68
2019-05-22T12:02:22.514Z,270.00
2019-05-22T12:03:22.469Z,283.43
2019-05-22T12:04:22.458Z,294.42
2019-05-22T12:05:22.488Z,10.75
2019-05-22T12:06:22.481Z,282.41
2019-05-22T12:07:22.478Z,302.91
2019-05-22T12:08:22.494Z,294.67
2019-05-22T12:09:22.502Z,302.90
2019-05-22T12:10:22.467Z,268.61
2019-05-22T12:11:22.439Z,75.28
2019-05-22T12:12:22.457Z,323.97
2019-05-22T12:13:22.471Z,314.94
2019-05-22T12:14:22.509Z,172.25
2019-05-22T12:15:22.486Z,90.00
2019-05-22T12:16:22.504Z,90.00
2019-05-22T12:17:37.513Z,90.00
2019-05-22T12:18:22.499Z,9.85
2019-05-22T12:19:22.478Z,148.71
2019-05-22T12:20:22.510Z,315.00
2019-05-22T12:21:22.487Z,315.00
2019-05-22T12:22:22.473Z,315.01
2019-05-22T12:23:22.516Z,337.55
2019-05-22T12:24:27.439Z,302.35
2019-05-22T12:25:22.465Z,23.89
2019-05-22T12:26:22.526Z,99.53
2019-05-22T12:27:22.496Z,87.92
2019-05-22T12:28:22.478Z,270.92
2019-05-22T12:29:22.511Z,290.65
2019-05-22T12:30:22.495Z,308.17
2019-05-22T12:31:22.493Z,0.62
2019-05-22T12:32:22.481Z,90.00
2019-05-22T12:33:22.503Z,80.88
2019-05-22T12:34:22.514Z,336.45